Time;durP1;ratioP1;P1;durP2;ratioP2;P2;SDS_P1;SDS_P2;PMS_P1;PMS_P2;Temp;Humidity;BMP_temperature;BMP_pressure;BME280_temperature;BME280_humidity;BME280_pressure;Samples;Min_cycle;Max_cycle;Signal;HPM_P1;HPM_P2
2022/06/16 00:01:07;;;;;;;4.65;3.42;;;18.90;99.90;;;;;;5055034;28;20265;-34
2022/06/16 00:03:33;;;;;;;5.03;3.90;;;18.80;99.90;;;;;;5055159;28;20266;-34
2022/06/16 00:05:59;;;;;;;3.72;3.13;;;18.80;99.90;;;;;;5038097;28;20213;-34
2022/06/16 00:08:25;;;;;;;4.97;3.58;;;18.80;99.90;;;;;;5055634;28;20204;-34
2022/06/16 00:13:37;;;;;;;5.88;3.78;;;18.80;99.90;;;;;;5054799;28;20181;-34
2022/06/16 00:16:05;;;;;;;4.00;3.60;;;18.80;99.90;;;;;;5055199;28;20181;-33
2022/06/16 00:18:31;;;;;;;4.18;3.70;;;18.80;99.90;;;;;;5054429;28;20296;-34
2022/06/16 00:20:57;;;;;;;4.70;4.00;;;18.80;99.90;;;;;;5054693;28;20284;-34
2022/06/16 00:23:23;;;;;;;5.13;3.78;;;18.70;99.90;;;;;;5038243;28;20239;-34
2022/06/16 00:25:49;;;;;;;4.10;3.70;;;18.70;99.90;;;;;;5054510;28;20193;-34
2022/06/16 00:28:15;;;;;;;4.88;3.70;;;18.70;99.90;;;;;;5054702;28;20200;-34
2022/06/16 00:30:41;;;;;;;4.47;3.45;;;18.70;99.90;;;;;;5054475;28;20219;-34
2022/06/16 00:33:07;;;;;;;4.40;3.88;;;18.60;99.90;;;;;;5038126;28;20720;-33
2022/06/16 00:35:33;;;;;;;3.97;3.28;;;18.60;99.90;;;;;;5054643;28;20181;-34
2022/06/16 00:38:00;;;;;;;4.70;3.45;;;18.50;99.90;;;;;;5054922;28;20247;-34
2022/06/16 00:40:26;;;;;;;4.95;3.70;;;18.50;99.90;;;;;;5054384;28;20197;-33
2022/06/16 00:42:52;;;;;;;4.25;3.85;;;18.30;99.90;;;;;;5072580;28;20226;-34
2022/06/16 00:45:48;;;;;;;4.53;3.40;;;18.10;99.90;;;;;;5054529;28;20192;-34
2022/06/16 00:48:32;;;;;;;5.10;3.70;;;18.10;99.90;;;;;;5072285;28;20205;-33
2022/06/16 00:51:00;;;;;;;11.38;3.50;;;17.90;99.90;;;;;;5037605;28;20201;-34
2022/06/16 00:53:29;;;;;;;3.75;3.42;;;17.90;99.90;;;;;;5054483;28;20173;-34
2022/06/16 00:55:55;;;;;;;4.10;3.70;;;17.80;99.90;;;;;;5053864;28;20185;-34
2022/06/16 00:58:25;;;;;;;3.75;3.42;;;17.70;99.90;;;;;;5054334;28;20267;-34
2022/06/16 01:00:52;;;;;;;4.68;4.20;;;17.70;99.90;;;;;;5054283;28;20247;-33
2022/06/16 01:06:17;;;;;;;4.20;3.47;;;17.40;99.90;;;;;;5030586;28;20189;-34
2022/06/16 01:08:44;;;;;;;4.80;4.10;;;17.50;99.90;;;;;;5053839;28;20208;-34
2022/06/16 01:14:47;;;;;;;6.22;3.75;;;17.30;99.90;;;;;;5071709;28;20197;-33
2022/06/16 01:17:51;;;;;;;3.40;3.10;;;17.40;99.90;;;;;;4994096;28;20281;-34
2022/06/16 01:20:19;;;;;;;3.95;3.55;;;17.40;99.90;;;;;;5001239;28;20205;-34
2022/06/16 01:22:54;;;;;;;3.38;3.13;;;17.30;99.90;;;;;;5034009;28;20184;-35
2022/06/16 01:25:38;;;;;;;3.97;3.57;;;17.30;99.90;;;;;;5048802;28;20180;-33
2022/06/16 01:28:19;;;;;;;4.70;3.88;;;17.40;99.90;;;;;;5037295;28;20208;-34
2022/06/16 01:30:57;;;;;;;5.73;3.60;;;17.30;99.90;;;;;;5052830;28;20208;-33
2022/06/16 01:33:35;;;;;;;6.72;4.00;;;17.20;99.90;;;;;;5053660;28;20211;-33
2022/06/16 01:36:33;;;;;;;4.20;3.80;;;17.20;99.90;;;;;;5053429;28;20169;-34
2022/06/16 01:39:06;;;;;;;4.20;3.80;;;17.10;99.90;;;;;;5031303;28;20205;-34
2022/06/16 01:41:53;;;;;;;7.07;4.30;;;17.00;99.90;;;;;;5036898;28;20177;-34
2022/06/16 01:44:27;;;;;;;4.40;3.87;;;17.00;99.90;;;;;;5053281;28;20268;-34
2022/06/16 01:47:00;;;;;;;4.57;3.93;;;16.90;99.90;;;;;;5053571;28;20180;-33
2022/06/16 01:49:33;;;;;;;4.20;3.50;;;17.00;99.90;;;;;;5037051;28;20224;-34
2022/06/16 01:52:06;;;;;;;3.87;3.50;;;16.90;99.90;;;;;;5036962;28;20173;-34
2022/06/16 01:54:39;;;;;;;5.00;4.10;;;16.90;99.90;;;;;;5053031;28;20187;-33
2022/06/16 01:57:20;;;;;;;5.07;3.70;;;16.90;99.90;;;;;;5053417;28;20200;-34
2022/06/16 01:59:54;;;;;;;4.07;3.67;;;16.80;99.90;;;;;;5052904;28;20197;-33
2022/06/16 02:02:23;;;;;;;4.10;3.70;;;16.80;99.90;;;;;;5036734;28;20173;-34
2022/06/16 02:05:06;;;;;;;4.27;3.87;;;16.80;99.90;;;;;;5053104;28;20177;-34
2022/06/16 02:07:36;;;;;;;4.03;3.63;;;16.80;99.90;;;;;;5053270;28;20288;-34
2022/06/16 02:10:15;;;;;;;4.70;4.27;;;16.70;99.90;;;;;;5053674;28;20261;-34
2022/06/16 02:12:55;;;;;;;6.53;4.10;;;16.60;99.90;;;;;;5052921;28;20188;-34
2022/06/16 02:15:45;;;;;;;4.10;3.73;;;16.60;99.90;;;;;;5052636;28;20693;-34
2022/06/16 02:18:18;;;;;;;4.40;3.80;;;16.50;99.90;;;;;;5053075;28;20185;-34
2022/06/16 02:20:56;;;;;;;4.87;3.90;;;16.40;99.90;;;;;;5052857;28;20212;-33
2022/06/16 02:23:22;;;;;;;3.80;3.50;;;16.40;99.90;;;;;;5053290;28;20228;-33
2022/06/16 02:25:52;;;;;;;4.83;4.00;;;16.30;99.90;;;;;;5036113;28;20207;-34
2022/06/16 02:28:18;;;;;;;5.23;4.00;;;16.30;99.90;;;;;;5052970;28;20211;-33
2022/06/16 02:30:50;;;;;;;3.87;3.47;;;16.40;99.90;;;;;;5052644;28;20196;-34
2022/06/16 02:33:38;;;;;;;5.20;3.87;;;16.30;99.90;;;;;;5036462;28;20264;-34
2022/06/16 02:36:17;;;;;;;5.43;3.93;;;16.20;99.90;;;;;;5052293;28;20173;-34
2022/06/16 02:39:08;;;;;;;4.27;3.83;;;16.10;99.90;;;;;;5016413;28;20546;-34
2022/06/16 02:41:38;;;;;;;4.60;4.20;;;16.10;99.90;;;;;;5017339;28;20276;-34
2022/06/16 02:44:28;;;;;;;4.43;4.03;;;16.20;99.90;;;;;;5020068;28;20186;-35
2022/06/16 02:47:00;;;;;;;5.97;3.67;;;16.20;99.90;;;;;;5037064;28;20273;-33
2022/06/16 02:49:38;;;;;;;4.80;3.77;;;16.20;99.90;;;;;;5020176;28;20217;-33
2022/06/16 02:52:22;;;;;;;4.00;3.57;;;16.20;99.90;;;;;;5020284;28;20188;-34
2022/06/16 02:54:58;;;;;;;4.47;3.83;;;16.10;99.90;;;;;;5042208;28;20192;-34
2022/06/16 02:57:45;;;;;;;5.07;3.87;;;15.90;99.90;;;;;;5056572;28;20230;-33
2022/06/16 03:00:24;;;;;;;4.10;3.77;;;15.70;99.90;;;;;;5056458;28;20204;-34
2022/06/16 03:02:51;;;;;;;4.33;3.93;;;15.50;99.90;;;;;;5056447;28;20177;-34
2022/06/16 03:05:17;;;;;;;5.27;4.03;;;15.40;99.90;;;;;;5039458;28;20188;-34
2022/06/16 03:07:45;;;;;;;5.50;4.00;;;15.40;99.90;;;;;;5056461;28;20216;-33
2022/06/16 03:10:50;;;;;;;4.07;3.67;;;15.50;99.90;;;;;;5042667;28;20193;-33
2022/06/16 03:13:21;;;;;;;5.03;4.13;;;15.60;99.90;;;;;;5056245;28;20211;-33
2022/06/16 03:15:48;;;;;;;4.93;3.60;;;15.60;99.90;;;;;;5055981;28;20227;-34
2022/06/16 03:18:17;;;;;;;4.37;3.97;;;15.60;99.90;;;;;;5056470;28;20205;-34
2022/06/16 03:20:44;;;;;;;4.80;4.30;;;15.70;99.90;;;;;;5074594;28;20258;-34
2022/06/16 03:23:10;;;;;;;5.47;3.70;;;15.70;99.90;;;;;;5055956;28;20189;-34
2022/06/16 03:25:38;;;;;;;4.70;4.20;;;15.60;99.90;;;;;;5055813;28;20189;-33
2022/06/16 03:28:06;;;;;;;4.60;4.20;;;15.60;99.90;;;;;;5056146;28;20205;-34
2022/06/16 03:30:35;;;;;;;5.60;4.00;;;15.60;99.90;;;;;;5056342;28;20225;-33
2022/06/16 03:33:04;;;;;;;3.93;3.63;;;15.60;99.90;;;;;;5055718;28;20230;-33
2022/06/16 03:35:30;;;;;;;6.33;3.83;;;15.50;99.90;;;;;;5038939;28;20200;-34
2022/06/16 03:40:47;;;;;;;5.23;3.97;;;15.60;99.90;;;;;;5027438;28;20209;-33
2022/06/16 03:43:13;;;;;;;4.90;3.60;;;15.70;99.90;;;;;;5039217;28;20188;-32
2022/06/16 03:45:39;;;;;;;4.80;4.40;;;15.80;99.90;;;;;;5039205;28;20181;-33
2022/06/16 03:48:05;;;;;;;3.90;3.60;;;15.90;99.90;;;;;;5038595;28;20205;-33
2022/06/16 03:50:34;;;;;;;4.07;3.63;;;16.00;99.90;;;;;;5055062;28;20209;-34
2022/06/16 03:53:02;;;;;;;5.23;4.13;;;16.00;99.90;;;;;;5038238;28;20272;-33
2022/06/16 03:55:28;;;;;;;4.77;3.83;;;16.00;99.90;;;;;;5044482;28;20192;-34
2022/06/16 03:57:54;;;;;;;6.20;4.10;;;16.10;99.90;;;;;;5035625;28;20185;-33
2022/06/16 04:00:22;;;;;;;4.63;4.17;;;16.10;99.90;;;;;;5054013;28;20197;-34
2022/06/16 04:03:59;;;;;;;6.30;4.43;;;16.20;99.90;;;;;;5073473;28;20185;-34
2022/06/16 04:05:37;;;;;;;5.30;4.03;;;16.30;99.90;;;;;;5055719;28;20193;-34
2022/06/16 04:08:09;;;;;;;4.27;3.87;;;16.40;99.90;;;;;;5039659;28;20209;-38
2022/06/16 04:10:37;;;;;;;5.67;3.77;;;16.40;99.90;;;;;;5055216;28;20251;-38
2022/06/16 04:13:05;;;;;;;6.27;3.90;;;16.50;99.90;;;;;;5055114;28;20181;-34
2022/06/16 04:15:32;;;;;;;4.87;4.27;;;16.50;99.90;;;;;;5038647;28;20207;-36
2022/06/16 04:18:00;;;;;;;4.90;4.20;;;16.60;99.90;;;;;;5055379;28;20174;-38
2022/06/16 04:20:33;;;;;;;5.10;3.90;;;16.50;99.90;;;;;;5055271;28;20292;-35
2022/06/16 04:23:22;;;;;;;5.50;3.80;;;16.40;99.90;;;;;;5064682;28;20187;-36
2022/06/16 04:25:50;;;;;;;5.50;4.17;;;16.40;99.90;;;;;;5054381;28;20193;-36
2022/06/16 04:28:19;;;;;;;4.27;3.87;;;16.20;99.90;;;;;;5039038;28;20299;-36
2022/06/16 04:30:52;;;;;;;4.77;4.10;;;16.20;99.90;;;;;;5039307;28;20197;-36
2022/06/16 04:33:22;;;;;;;4.67;3.83;;;16.30;99.90;;;;;;5039200;28;20200;-34
2022/06/16 04:35:49;;;;;;;5.57;3.97;;;16.30;99.90;;;;;;5054771;28;20237;-33
2022/06/16 04:38:21;;;;;;;4.93;4.07;;;16.30;99.90;;;;;;5054889;28;20311;-37
2022/06/16 04:40:49;;;;;;;4.57;4.17;;;16.40;99.90;;;;;;5054455;28;20207;-36
2022/06/16 04:43:17;;;;;;;4.37;3.97;;;16.50;99.90;;;;;;5054690;28;20178;-35
2022/06/16 04:45:51;;;;;;;4.23;3.80;;;16.50;99.90;;;;;;5054833;28;20181;-38
2022/06/16 04:48:20;;;;;;;6.23;4.13;;;16.60;99.90;;;;;;5054708;28;20215;-35
2022/06/16 04:50:46;;;;;;;4.27;3.83;;;16.70;99.90;;;;;;5054380;28;20279;-33
2022/06/16 04:53:14;;;;;;;5.17;3.87;;;16.80;99.90;;;;;;5054576;28;20169;-36
2022/06/16 04:56:00;;;;;;;4.40;4.00;;;16.90;99.90;;;;;;5057305;28;20196;-33
2022/06/16 04:58:40;;;;;;;4.47;3.57;;;17.00;99.90;;;;;;5019771;28;20213;-34
2022/06/16 05:01:17;;;;;;;5.87;3.63;;;17.10;99.90;;;;;;5019864;28;20202;-36
2022/06/16 05:03:50;;;;;;;4.00;3.60;;;17.20;99.90;;;;;;5018772;28;20185;-33
2022/06/16 05:06:37;;;;;;;6.77;4.43;;;17.30;99.90;;;;;;5021530;28;20181;-39
2022/06/16 05:09:13;;;;;;;5.70;4.20;;;17.30;99.90;;;;;;5034390;28;20205;-35
2022/06/16 05:11:39;;;;;;;4.07;3.67;;;17.30;99.90;;;;;;5034631;28;20183;-39
2022/06/16 05:14:23;;;;;;;4.47;3.83;;;17.30;99.90;;;;;;5020282;28;20193;-38
2022/06/16 05:17:08;;;;;;;4.50;4.10;;;17.30;99.90;;;;;;5053316;28;20224;-36
2022/06/16 05:20:12;;;;;;;4.90;4.30;;;17.40;99.90;;;;;;5052270;28;20237;-36
2022/06/16 05:23:01;;;;;;;4.70;4.30;;;17.40;99.90;;;;;;5043418;28;20259;-36
2022/06/16 05:25:51;;;;;;;6.33;4.20;;;17.50;99.90;;;;;;5053762;28;20195;-35
2022/06/16 05:28:43;;;;;;;6.87;3.90;;;17.50;99.90;;;;;;5068529;28;20338;-34
2022/06/16 05:31:27;;;;;;;7.72;4.38;;;17.50;99.90;;;;;;5056831;28;20265;-37
2022/06/16 05:33:58;;;;;;;7.60;4.25;;;17.60;99.90;;;;;;5053745;28;20185;-35
2022/06/16 05:36:30;;;;;;;7.68;4.20;;;17.70;99.90;;;;;;5053897;28;20181;-37
2022/06/16 05:39:14;;;;;;;4.50;4.00;;;17.70;99.90;;;;;;5070471;28;20272;-36
2022/06/16 05:41:49;;;;;;;4.47;4.07;;;17.80;99.90;;;;;;5038582;28;20180;-39
2022/06/16 05:44:33;;;;;;;4.40;4.00;;;18.00;99.90;;;;;;5071527;28;20191;-34
2022/06/16 05:47:07;;;;;;;7.65;4.45;;;18.10;99.90;;;;;;5053315;28;20186;-35
2022/06/16 05:49:38;;;;;;;6.70;4.60;;;18.20;99.90;;;;;;5053856;28;20220;-36
2022/06/16 05:52:13;;;;;;;6.47;4.25;;;18.40;99.90;;;;;;5037531;28;20265;-39
2022/06/16 05:54:42;;;;;;;5.60;4.40;;;18.40;99.90;;;;;;5037710;28;20192;-37
2022/06/16 05:57:09;;;;;;;5.07;4.32;;;18.50;99.90;;;;;;5053713;28;20177;-36
2022/06/16 05:59:37;;;;;;;5.80;4.90;;;18.60;99.90;;;;;;5053978;28;20289;-35
2022/06/16 06:02:15;;;;;;;6.32;4.25;;;18.70;99.90;;;;;;5037569;28;20185;-36
2022/06/16 06:04:42;;;;;;;4.60;4.10;;;18.80;99.90;;;;;;5037775;28;20181;-39
2022/06/16 06:07:09;;;;;;;5.10;4.55;;;19.00;99.90;;;;;;5055542;28;20189;-37
2022/06/16 06:17:48;;;;;;;7.28;4.80;;;19.40;99.90;;;;;;5053713;28;20204;-39
2022/06/16 06:20:14;;;;;;;4.97;4.47;;;19.50;99.90;;;;;;5054336;28;20233;-35
2022/06/16 06:22:45;;;;;;;5.82;4.85;;;19.70;99.90;;;;;;5038690;28;20730;-36
2022/06/16 06:25:13;;;;;;;6.50;5.00;;;20.00;99.90;;;;;;5037469;28;20185;-38
2022/06/16 06:27:47;;;;;;;7.88;5.25;;;20.20;99.90;;;;;;5054241;28;20212;-38
2022/06/16 06:30:19;;;;;;;5.43;4.53;;;20.30;99.90;;;;;;5037679;28;20204;-35
2022/06/16 06:32:46;;;;;;;6.47;4.53;;;20.50;99.90;;;;;;5054057;28;20184;-38
2022/06/16 06:35:13;;;;;;;5.35;4.72;;;20.70;99.90;;;;;;5053850;28;20180;-39
2022/06/16 06:37:41;;;;;;;6.93;4.65;;;20.80;99.90;;;;;;5054199;28;20238;-39
2022/06/16 06:40:07;;;;;;;5.13;4.60;;;20.90;99.90;;;;;;5053723;28;20208;-38
2022/06/16 06:42:33;;;;;;;6.57;4.75;;;21.00;99.90;;;;;;5037206;28;20212;-39
2022/06/16 06:45:02;;;;;;;4.78;4.35;;;21.20;99.90;;;;;;5053448;28;20660;-37
2022/06/16 06:47:30;;;;;;;5.75;4.78;;;21.40;99.90;;;;;;5037531;28;20192;-40
2022/06/16 06:49:56;;;;;;;5.38;4.60;;;21.40;99.90;;;;;;5033668;28;20209;-37
2022/06/16 06:52:22;;;;;;;5.25;4.75;;;21.60;99.90;;;;;;5050464;28;20174;-38
2022/06/16 06:54:49;;;;;;;7.78;5.00;;;21.70;99.90;;;;;;5052952;28;20637;-37
2022/06/16 06:57:25;;;;;;;4.93;4.53;;;21.80;99.90;;;;;;5053022;28;20223;-37
2022/06/16 06:59:52;;;;;;;5.00;4.50;;;21.90;99.90;;;;;;5052964;28;20201;-37
2022/06/16 07:02:19;;;;;;;6.25;4.13;;;21.90;99.90;;;;;;5052830;28;20177;-38
2022/06/16 07:04:45;;;;;;;4.75;4.18;;;22.00;99.90;;;;;;5070497;28;20212;-35
2022/06/16 07:07:16;;;;;;;7.05;4.68;;;22.10;99.90;;;;;;5052609;28;20170;-36
2022/06/16 07:09:42;;;;;;;6.32;4.43;;;22.20;99.90;;;;;;5035954;28;20209;-38
2022/06/16 07:12:13;;;;;;;5.00;4.50;;;22.40;99.90;;;;;;5052083;28;20230;-36
2022/06/16 07:14:48;;;;;;;9.00;4.40;;;22.50;99.90;;;;;;5052740;28;20178;-37
2022/06/16 07:17:15;;;;;;;5.30;4.80;;;22.50;99.90;;;;;;5052633;28;20176;-35
2022/06/16 07:19:42;;;;;;;5.90;3.97;;;22.50;99.90;;;;;;5051695;28;20258;-40
2022/06/16 07:22:08;;;;;;;5.75;4.20;;;22.50;99.90;;;;;;5052958;28;20256;-35
2022/06/16 07:24:34;;;;;;;6.30;4.63;;;22.50;99.90;;;;;;5070245;28;20264;-38
2022/06/16 07:27:01;;;;;;;5.00;4.13;;;22.50;99.90;;;;;;5052444;28;20181;-38
2022/06/16 07:29:27;;;;;;;5.20;4.68;;;22.50;99.90;;;;;;5062328;28;20239;-36
2022/06/16 07:31:53;;;;;;;4.70;4.30;;;22.60;99.90;;;;;;5039814;28;20231;-37
2022/06/16 07:34:19;;;;;;;5.25;4.70;;;22.90;99.90;;;;;;5036305;28;20173;-37
2022/06/16 07:36:45;;;;;;;4.82;4.18;;;23.20;99.90;;;;;;5036755;28;20174;-40
2022/06/16 07:39:11;;;;;;;5.45;4.35;;;23.60;99.90;;;;;;5036770;28;20186;-42
2022/06/16 07:41:39;;;;;;;4.80;4.40;;;23.90;99.90;;;;;;5036798;28;20186;-35
2022/06/16 07:44:11;;;;;;;5.00;4.60;;;24.30;99.90;;;;;;5041692;28;20193;-41
2022/06/16 07:46:39;;;;;;;6.05;4.32;;;24.60;99.90;;;;;;5067052;28;20235;-39
2022/06/16 07:49:07;;;;;;;5.35;4.47;;;24.90;99.90;;;;;;5048491;28;20220;-36
2022/06/16 07:51:33;;;;;;;4.72;4.32;;;25.00;99.90;;;;;;5045991;28;20186;-35
2022/06/16 07:53:59;;;;;;;5.30;4.30;;;25.10;99.90;;;;;;5051238;28;20188;-38
2022/06/16 07:56:26;;;;;;;5.68;4.18;;;25.20;99.90;;;;;;5047471;28;20190;-39
2022/06/16 07:58:53;;;;;;;6.25;4.45;;;25.30;99.90;;;;;;5063344;28;20188;-41
2022/06/16 08:01:19;;;;;;;5.38;4.18;;;25.40;99.90;;;;;;5040574;28;20201;-39
2022/06/16 08:03:46;;;;;;;8.05;4.25;;;25.50;99.90;;;;;;5036904;28;20209;-39
2022/06/16 08:06:16;;;;;;;4.90;4.40;;;25.50;99.90;;;;;;5039300;28;20277;-41
2022/06/16 08:08:43;;;;;;;4.90;4.20;;;25.50;99.90;;;;;;5040107;28;20205;-38
2022/06/16 08:13:55;;;;;;;6.32;4.25;;;25.60;99.90;;;;;;5074797;28;20252;-36
2022/06/16 08:16:22;;;;;;;5.47;4.15;;;25.70;99.90;;;;;;5027109;28;20181;-38
2022/06/16 08:18:49;;;;;;;5.55;4.43;;;25.80;99.90;;;;;;5053289;28;20174;-38
2022/06/16 08:21:15;;;;;;;4.75;4.15;;;26.10;99.90;;;;;;5047167;28;20254;-37
2022/06/16 08:23:41;;;;;;;4.55;4.15;;;26.30;99.90;;;;;;5049257;28;20212;-37
2022/06/16 08:26:07;;;;;;;7.20;4.90;;;26.40;99.90;;;;;;5032316;28;20238;-38
2022/06/16 08:28:34;;;;;;;5.00;4.15;;;26.40;99.90;;;;;;5047342;28;20209;-37
2022/06/16 08:31:01;;;;;;;4.88;4.30;;;26.60;99.90;;;;;;5047938;28;20198;-44
2022/06/16 08:33:27;;;;;;;4.65;4.25;;;26.70;99.90;;;;;;5028188;28;20171;-39
2022/06/16 08:35:55;;;;;;;5.00;4.47;;;26.80;99.90;;;;;;5046544;28;20169;-39
2022/06/16 08:38:22;;;;;;;4.43;4.03;;;27.10;99.90;;;;;;5039182;28;20217;-37
2022/06/16 08:41:11;;;;;;;5.00;4.32;;;27.40;99.90;;;;;;5038122;28;20201;-38
2022/06/16 08:44:11;;;;;;;6.50;4.85;;;27.70;99.90;;;;;;5050192;28;20246;-37
2022/06/16 08:46:53;;;;;;;5.20;4.25;;;28.00;99.90;;;;;;5067813;28;20189;-36
2022/06/16 08:49:47;;;;;;;4.72;3.95;;;28.20;99.90;;;;;;5030832;28;20220;-38
2022/06/16 08:52:37;;;;;;;4.93;4.10;;;28.50;99.90;;;;;;5032963;28;20181;-39
2022/06/16 08:55:17;;;;;;;6.90;4.28;;;28.70;99.90;;;;;;5030997;28;20225;-37
2022/06/16 08:57:49;;;;;;;4.10;3.80;;;28.90;99.90;;;;;;5018559;28;20259;-37
2022/06/16 09:00:22;;;;;;;5.13;4.20;;;29.10;99.90;;;;;;5053973;28;20201;-39
2022/06/16 09:03:09;;;;;;;5.25;4.18;;;29.30;99.90;;;;;;5038737;28;20188;-38
2022/06/16 09:05:50;;;;;;;5.60;4.18;;;29.20;99.90;;;;;;5054874;28;20192;-40
2022/06/16 09:08:48;;;;;;;5.03;3.70;;;29.50;99.90;;;;;;5054986;28;20239;-40
2022/06/16 09:11:40;;;;;;;4.18;3.83;;;29.50;99.30;;;;;;5045940;28;20264;-38
2022/06/16 09:14:17;;;;;;;4.50;4.10;;;29.60;98.70;;;;;;5054402;28;20178;-39
2022/06/16 09:17:04;;;;;;;4.28;3.80;;;29.90;98.30;;;;;;5055312;28;20177;-39
2022/06/16 09:19:49;;;;;;;4.75;3.55;;;29.80;98.40;;;;;;5038010;28;20267;-35
2022/06/16 09:22:33;;;;;;;3.42;3.13;;;29.90;96.50;;;;;;5053709;28;20196;-32
2022/06/16 09:25:11;;;;;;;5.32;3.78;;;29.80;97.60;;;;;;5053653;28;20637;-32
2022/06/16 09:27:47;;;;;;;4.50;4.10;;;29.80;97.40;;;;;;5053443;28;20188;-32
2022/06/16 09:30:18;;;;;;;5.65;3.75;;;29.70;97.60;;;;;;5053615;28;20212;-32
2022/06/16 09:32:58;;;;;;;4.72;3.55;;;29.60;98.00;;;;;;5053198;28;20185;-34
2022/06/16 09:35:45;;;;;;;5.15;3.83;;;29.70;98.20;;;;;;5053593;28;20177;-32
2022/06/16 09:38:32;;;;;;;4.82;3.80;;;29.60;96.60;;;;;;5053670;28;20260;-32
2022/06/16 09:42:32;;;;;;;5.55;3.88;;;29.70;96.80;;;;;;5036887;28;20375;-32
2022/06/16 09:43:55;;;;;;;3.90;3.60;;;29.70;96.80;;;;;;5053256;28;20219;-33
2022/06/16 09:46:35;;;;;;;5.55;3.65;;;29.90;96.70;;;;;;5032347;28;20182;-32
2022/06/16 09:50:00;;;;;;;6.47;3.58;;;29.90;96.20;;;;;;5026342;28;20197;-32
2022/06/16 09:52:39;;;;;;;7.68;3.92;;;29.70;96.00;;;;;;5001521;28;20190;-33
2022/06/16 09:55:16;;;;;;;7.68;4.13;;;29.90;96.70;;;;;;5043968;28;20201;-36
2022/06/16 09:57:54;;;;;;;4.00;3.70;;;29.90;95.20;;;;;;5045511;28;20180;-34
2022/06/16 10:00:22;;;;;;;5.75;4.10;;;29.80;94.10;;;;;;5027028;28;20293;-33
2022/06/16 10:02:56;;;;;;;4.65;3.45;;;29.90;94.20;;;;;;5028239;28;20180;-36
2022/06/16 10:05:43;;;;;;;4.38;3.97;;;30.10;93.90;;;;;;5139655;22;20224;-33
2022/06/16 10:08:24;;;;;;;4.25;3.58;;;30.40;94.10;;;;;;5061698;28;20464;-33
2022/06/16 10:11:06;;;;;;;3.65;3.35;;;30.40;93.90;;;;;;5059139;28;20177;-33
2022/06/16 10:14:22;;;;;;;4.30;3.38;;;30.50;93.20;;;;;;5059934;28;20164;-33
2022/06/16 10:17:14;;;;;;;3.38;3.08;;;30.50;93.20;;;;;;5052143;28;20196;-33
2022/06/16 10:19:44;;;;;;;3.60;3.30;;;30.50;92.00;;;;;;5039347;28;20185;-33
2022/06/16 10:22:17;;;;;;;3.92;3.50;;;30.60;92.70;;;;;;5008463;28;20181;-33
2022/06/16 10:24:53;;;;;;;4.88;3.60;;;30.60;91.90;;;;;;5023286;28;20257;-33
2022/06/16 10:27:21;;;;;;;5.45;3.40;;;30.50;92.50;;;;;;5025744;28;20208;-32
2022/06/16 10:29:58;;;;;;;4.25;2.80;;;30.70;91.60;;;;;;5038184;28;20205;-33
2022/06/16 10:32:44;;;;;;;7.68;3.90;;;30.80;91.20;;;;;;5037831;28;20268;-33
2022/06/16 10:35:21;;;;;;;4.45;3.10;;;30.70;91.30;;;;;;5026308;28;20472;-33
2022/06/16 10:37:52;;;;;;;3.53;3.20;;;30.70;91.50;;;;;;5036170;28;20185;-33
2022/06/16 10:40:31;;;;;;;3.78;3.38;;;30.80;91.10;;;;;;5038026;28;20205;-33
2022/06/16 10:43:08;;;;;;;4.68;3.38;;;31.10;91.10;;;;;;5036937;28;20207;-33
2022/06/16 10:45:39;;;;;;;3.63;3.20;;;31.00;91.40;;;;;;5007506;28;20235;-33
2022/06/16 10:48:19;;;;;;;3.83;3.33;;;30.80;91.70;;;;;;5040865;28;20197;-33
2022/06/16 10:51:07;;;;;;;4.50;3.60;;;30.70;91.20;;;;;;5043169;28;20170;-33
2022/06/16 10:53:46;;;;;;;4.95;3.80;;;30.60;91.70;;;;;;5014264;28;20236;-33
2022/06/16 10:56:19;;;;;;;5.88;3.55;;;30.60;92.10;;;;;;5031846;28;20189;-33
2022/06/16 10:58:59;;;;;;;5.82;3.45;;;30.10;90.90;;;;;;5032758;28;20181;-33
2022/06/16 11:01:46;;;;;;;5.50;3.80;;;29.90;91.90;;;;;;5049351;28;20205;-33
2022/06/16 11:04:18;;;;;;;6.65;3.55;;;30.10;91.20;;;;;;5052314;28;20221;-33
2022/06/16 11:06:56;;;;;;;4.18;3.25;;;30.20;91.70;;;;;;5047106;28;20209;-33
2022/06/16 11:09:27;;;;;;;6.15;3.20;;;30.30;91.20;;;;;;5016725;28;20296;-33
2022/06/16 11:11:57;;;;;;;4.30;3.38;;;30.50;91.20;;;;;;5031007;28;20241;-33
2022/06/16 11:14:59;;;;;;;4.07;3.33;;;30.50;90.30;;;;;;5035990;28;20260;-33
2022/06/16 11:17:35;;;;;;;5.45;3.70;;;30.60;89.50;;;;;;5027841;28;20216;-33
2022/06/16 11:20:16;;;;;;;6.32;3.67;;;30.30;90.60;;;;;;5019551;28;20197;-33
2022/06/16 11:22:47;;;;;;;3.95;3.20;;;30.50;90.80;;;;;;5053899;28;20178;-33
2022/06/16 11:25:24;;;;;;;3.90;3.60;;;30.60;90.20;;;;;;5053390;28;20213;-33
2022/06/16 11:27:59;;;;;;;4.93;3.20;;;30.80;89.90;;;;;;5054000;28;20284;-33
2022/06/16 11:30:51;;;;;;;5.40;3.55;;;31.10;90.50;;;;;;5028231;28;20220;-33
2022/06/16 11:36:31;;;;;;;4.00;3.15;;;31.00;90.50;;;;;;5034976;28;20178;-33
2022/06/16 11:39:15;;;;;;;4.60;3.40;;;31.10;90.40;;;;;;5034753;28;20206;-33
2022/06/16 11:41:46;;;;;;;4.63;3.33;;;31.00;88.60;;;;;;5035221;28;20205;-33
2022/06/16 11:44:48;;;;;;;3.78;3.33;;;31.20;90.40;;;;;;5041386;28;20607;-33
2022/06/16 11:47:41;;;;;;;5.18;3.45;;;31.20;88.90;;;;;;5035547;28;20169;-33
2022/06/16 11:50:13;;;;;;;3.60;3.30;;;31.10;90.50;;;;;;5035444;28;20281;-32
2022/06/16 11:53:08;;;;;;;6.13;3.58;;;31.10;90.40;;;;;;5053421;28;20174;-33
2022/06/16 11:55:44;;;;;;;6.22;3.20;;;31.10;90.40;;;;;;5042244;28;20206;-33
2022/06/16 11:58:19;;;;;;;4.07;3.70;;;31.30;91.40;;;;;;5050280;28;20217;-33
2022/06/16 12:00:51;;;;;;;4.13;3.45;;;31.20;90.20;;;;;;5034872;28;20186;-33
2022/06/16 12:04:10;;;;;;;3.72;3.38;;;31.20;90.30;;;;;;5018787;28;20185;-33
2022/06/16 12:07:13;;;;;;;4.00;3.60;;;31.20;90.60;;;;;;4975758;28;20231;-33
2022/06/16 12:09:52;;;;;;;4.80;3.50;;;31.30;88.50;;;;;;5002352;28;20213;-33
2022/06/16 12:12:39;;;;;;;6.07;3.63;;;31.00;89.50;;;;;;5018400;28;20182;-33
2022/06/16 12:15:38;;;;;;;5.47;3.50;;;30.70;90.60;;;;;;5033919;28;20197;-33
2022/06/16 12:18:23;;;;;;;3.60;3.30;;;30.80;89.60;;;;;;5034843;28;20184;-33
2022/06/16 12:21:13;;;;;;;4.53;3.40;;;30.90;91.00;;;;;;5034964;28;20182;-33
2022/06/16 12:24:09;;;;;;;3.75;2.90;;;31.20;88.00;;;;;;5032845;28;20269;-32
2022/06/16 12:26:35;;;;;;;3.20;2.90;;;31.40;84.80;;;;;;5034709;28;20273;-33
2022/06/16 12:29:13;;;;;;;4.05;3.10;;;31.80;85.60;;;;;;5035007;28;20296;-33
2022/06/16 12:32:22;;;;;;;3.78;3.20;;;32.00;80.00;;;;;;5034998;28;20166;-33
2022/06/16 12:35:13;;;;;;;6.28;3.20;;;32.00;78.40;;;;;;5053107;28;20201;-33
2022/06/16 12:37:50;;;;;;;3.75;3.28;;;32.00;85.60;;;;;;5020622;28;20178;-33
2022/06/16 12:40:29;;;;;;;4.63;3.55;;;31.60;90.10;;;;;;5034761;28;20675;-33
2022/06/16 12:43:01;;;;;;;4.53;3.95;;;31.60;89.10;;;;;;5018239;28;20170;-33
2022/06/16 12:45:33;;;;;;;4.97;3.67;;;31.40;87.40;;;;;;5017856;28;20205;-33
2022/06/16 12:48:04;;;;;;;4.85;3.65;;;31.30;88.70;;;;;;5017905;28;20237;-33
2022/06/16 12:50:36;;;;;;;3.85;3.45;;;31.30;89.60;;;;;;5034112;28;20188;-33
2022/06/16 12:53:17;;;;;;;3.60;3.33;;;31.30;89.90;;;;;;5034062;28;20178;-33
2022/06/16 12:56:35;;;;;;;5.07;3.10;;;31.70;90.90;;;;;;5033894;28;20289;-33
2022/06/16 12:59:12;;;;;;;6.07;3.60;;;31.50;88.80;;;;;;4992661;28;20193;-33
2022/06/16 13:01:39;;;;;;;5.22;3.70;;;31.30;89.60;;;;;;5017764;28;20185;-33
2022/06/16 13:04:22;;;;;;;5.57;3.83;;;30.90;88.60;;;;;;5016776;28;20271;-33
2022/06/16 13:06:49;;;;;;;5.13;3.67;;;30.70;90.60;;;;;;5005042;28;20211;-33
2022/06/16 13:09:15;;;;;;;6.20;3.40;;;30.80;90.30;;;;;;5017350;28;20277;-33
2022/06/16 13:11:49;;;;;;;3.67;3.30;;;30.80;88.00;;;;;;5034100;28;20186;-33
2022/06/16 13:14:27;;;;;;;4.40;3.47;;;30.70;87.90;;;;;;5033678;28;20200;-33
2022/06/16 13:16:55;;;;;;;4.03;3.20;;;30.70;89.00;;;;;;5051634;28;20220;-33
2022/06/16 13:19:25;;;;;;;4.85;3.90;;;31.10;89.20;;;;;;5017029;28;20182;-33
2022/06/16 13:21:57;;;;;;;4.75;3.28;;;31.20;88.10;;;;;;5017478;28;20646;-33
2022/06/16 13:24:53;;;;;;;5.13;3.42;;;31.00;87.20;;;;;;5016540;28;20255;-33
2022/06/16 13:27:27;;;;;;;5.13;3.47;;;30.90;86.40;;;;;;5025586;28;20247;-33
2022/06/16 13:30:13;;;;;;;4.97;3.35;;;30.80;88.20;;;;;;5016996;28;20209;-33
2022/06/16 13:32:50;;;;;;;5.60;3.13;;;31.20;88.20;;;;;;5026310;28;20190;-33
2022/06/16 13:35:15;;;;;;;4.00;2.90;;;31.20;87.20;;;;;;5033855;28;20252;-33
2022/06/16 13:38:08;;;;;;;3.42;3.13;;;31.40;86.30;;;;;;5051176;28;20174;-33
2022/06/16 13:40:37;;;;;;;5.40;3.13;;;31.90;86.30;;;;;;5049914;28;20188;-33
2022/06/16 13:43:15;;;;;;;5.05;3.05;;;31.70;83.50;;;;;;5017220;28;20178;-33
2022/06/16 13:45:40;;;;;;;6.20;2.92;;;31.50;81.80;;;;;;5051234;28;20198;-33
2022/06/16 13:48:12;;;;;;;4.93;3.00;;;31.60;83.20;;;;;;5016589;28;20221;-33
2022/06/16 13:50:54;;;;;;;6.03;3.15;;;31.70;82.60;;;;;;5033163;28;20186;-33
2022/06/16 13:53:27;;;;;;;4.28;3.17;;;31.70;82.60;;;;;;5051163;28;20174;-33
2022/06/16 13:55:55;;;;;;;5.75;3.10;;;31.50;81.70;;;;;;5033083;28;20281;-34